Time;durP1;ratioP1;P1;durP2;ratioP2;P2;SDS_P1;SDS_P2;PMS_P1;PMS_P2;Temp;Humidity;BMP_temperature;BMP_pressure;BME280_temperature;BME280_humidity;BME280_pressure;Samples;Min_cycle;Max_cycle;Signal;HPM_P1;HPM_P2
2022/06/21 00:00:46;;;;;;;5.67;3.33;;;13.50;99.90;;;;;;5121097;27;20496;-77
2022/06/21 00:03:17;;;;;;;7.67;3.53;;;13.40;99.90;;;;;;5121452;27;20503;-78
2022/06/21 00:05:48;;;;;;;6.10;3.37;;;13.40;99.90;;;;;;5140791;27;20411;-79
2022/06/21 00:08:19;;;;;;;8.27;3.60;;;13.40;99.90;;;;;;5122500;27;20474;-78
2022/06/21 00:10:49;;;;;;;7.20;3.50;;;13.40;99.90;;;;;;5140705;27;20472;-79
2022/06/21 00:13:20;;;;;;;8.63;3.67;;;13.30;99.90;;;;;;5121700;27;20446;-78
2022/06/21 00:15:52;;;;;;;9.10;3.40;;;13.30;99.90;;;;;;5121666;27;20975;-78
2022/06/21 00:18:23;;;;;;;8.70;3.50;;;13.30;99.90;;;;;;5140132;27;20450;-79
2022/06/21 00:20:52;;;;;;;7.17;3.53;;;13.30;99.90;;;;;;5121459;27;20536;-78
2022/06/21 00:23:24;;;;;;;7.33;3.50;;;13.20;99.90;;;;;;5121450;27;20437;-79
2022/06/21 00:25:53;;;;;;;7.63;3.30;;;13.20;99.90;;;;;;5121605;27;20442;-78
2022/06/21 00:28:22;;;;;;;7.97;3.33;;;13.20;99.90;;;;;;5121478;27;20470;-78
2022/06/21 00:30:52;;;;;;;7.40;3.30;;;13.20;99.90;;;;;;5121582;27;20448;-79
2022/06/21 00:33:23;;;;;;;9.90;4.10;;;13.10;99.90;;;;;;5121233;27;20434;-78
2022/06/21 00:35:54;;;;;;;8.90;3.70;;;13.10;99.90;;;;;;5121358;27;20989;-80
2022/06/21 00:38:28;;;;;;;11.00;3.67;;;13.10;99.90;;;;;;5121868;27;20512;-80
2022/06/21 00:40:57;;;;;;;11.13;4.40;;;13.00;99.90;;;;;;5122180;27;20446;-80
2022/06/21 00:43:29;;;;;;;11.27;3.47;;;13.00;99.90;;;;;;5121869;27;20449;-80
2022/06/21 00:45:59;;;;;;;7.67;3.77;;;13.00;99.90;;;;;;5121611;27;20434;-79
2022/06/21 00:48:32;;;;;;;7.57;3.83;;;13.00;99.90;;;;;;5121766;27;20574;-79
2022/06/21 00:51:08;;;;;;;7.90;4.10;;;13.00;99.90;;;;;;5121747;27;21015;-79
2022/06/21 00:53:42;;;;;;;5.90;3.27;;;12.90;99.90;;;;;;5121540;27;20800;-78
2022/06/21 00:56:15;;;;;;;8.80;3.80;;;12.90;99.90;;;;;;5122145;27;20462;-78
2022/06/21 00:58:44;;;;;;;12.03;4.40;;;12.90;99.90;;;;;;5140307;27;20442;-78
2022/06/21 01:01:20;;;;;;;8.80;3.70;;;12.90;99.90;;;;;;5121860;27;20528;-79
2022/06/21 01:03:53;;;;;;;9.23;4.40;;;12.90;99.90;;;;;;5122061;27;20448;-78
2022/06/21 01:06:27;;;;;;;13.27;4.13;;;12.90;99.90;;;;;;5121122;27;20529;-77
2022/06/21 01:09:02;;;;;;;11.93;3.80;;;12.80;99.90;;;;;;5120951;27;20443;-80
2022/06/21 01:11:35;;;;;;;7.37;3.30;;;12.80;99.90;;;;;;5139623;27;20494;-77
2022/06/21 01:14:03;;;;;;;7.10;3.30;;;12.80;99.90;;;;;;5120778;27;20427;-78
2022/06/21 01:16:34;;;;;;;10.53;3.20;;;12.80;99.90;;;;;;5120207;27;20477;-78
2022/06/21 01:19:04;;;;;;;6.53;3.07;;;12.80;99.90;;;;;;5120732;27;20434;-79
2022/06/21 01:21:32;;;;;;;8.97;3.50;;;12.80;99.90;;;;;;5120355;27;20446;-79
2022/06/21 01:24:12;;;;;;;6.50;2.73;;;12.70;99.90;;;;;;5120346;27;20861;-78
2022/06/21 01:26:47;;;;;;;6.90;3.60;;;12.70;99.90;;;;;;5139396;27;20861;-78
2022/06/21 01:29:25;;;;;;;9.13;4.00;;;12.70;99.90;;;;;;5139292;27;20483;-78
2022/06/21 01:31:57;;;;;;;9.60;3.80;;;12.70;99.90;;;;;;5148237;27;20865;-79
2022/06/21 01:34:27;;;;;;;5.40;3.10;;;12.70;99.90;;;;;;5131407;27;20458;-78
2022/06/21 01:37:01;;;;;;;8.37;3.33;;;12.70;99.90;;;;;;5144151;27;20474;-78
2022/06/21 01:39:34;;;;;;;8.97;3.70;;;12.70;99.90;;;;;;5123686;27;20483;-78
2022/06/21 01:42:07;;;;;;;4.70;3.07;;;12.70;99.90;;;;;;5126968;27;20537;-79
2022/06/21 01:44:40;;;;;;;7.23;3.60;;;12.60;99.90;;;;;;5125087;27;20434;-79
2022/06/21 01:47:17;;;;;;;7.50;2.97;;;12.70;99.90;;;;;;5141311;27;20550;-78
2022/06/21 01:49:50;;;;;;;8.43;4.03;;;12.60;99.90;;;;;;5122810;27;20951;-78
2022/06/21 01:52:24;;;;;;;5.83;3.20;;;12.60;99.90;;;;;;5121075;27;20438;-78
2022/06/21 01:54:57;;;;;;;9.50;3.70;;;12.60;99.90;;;;;;5122294;27;20438;-78
2022/06/21 01:57:28;;;;;;;7.17;3.67;;;12.60;99.90;;;;;;5122266;27;20478;-79
2022/06/21 01:59:58;;;;;;;7.23;3.03;;;12.50;99.90;;;;;;5121192;27;20489;-78
2022/06/21 02:02:31;;;;;;;12.57;3.73;;;12.50;99.90;;;;;;5139884;27;20451;-78
2022/06/21 02:05:04;;;;;;;5.90;3.37;;;12.50;99.90;;;;;;5140158;27;20468;-77
2022/06/21 02:07:36;;;;;;;8.40;3.60;;;12.50;99.90;;;;;;5120610;27;20829;-78
2022/06/21 02:10:13;;;;;;;7.70;3.83;;;12.40;99.90;;;;;;5119279;27;20876;-78
2022/06/21 02:12:47;;;;;;;10.37;4.53;;;12.40;99.90;;;;;;5120001;27;20529;-77
2022/06/21 02:15:25;;;;;;;6.97;3.90;;;12.40;99.90;;;;;;5138759;27;20414;-79
2022/06/21 02:17:54;;;;;;;9.57;3.67;;;12.30;99.90;;;;;;5121077;27;20482;-79
2022/06/21 02:20:29;;;;;;;9.50;3.70;;;12.30;99.90;;;;;;5118662;27;20438;-79
2022/06/21 02:22:57;;;;;;;7.90;3.50;;;12.30;99.90;;;;;;5120877;27;20434;-78
2022/06/21 02:25:27;;;;;;;6.90;3.97;;;12.30;99.90;;;;;;5118719;27;20499;-80
2022/06/21 02:28:02;;;;;;;8.93;4.47;;;12.30;99.90;;;;;;5118473;27;20565;-78
2022/06/21 02:30:31;;;;;;;8.67;3.73;;;12.20;99.90;;;;;;5118884;27;20449;-78
2022/06/21 02:33:02;;;;;;;9.60;3.73;;;12.20;99.90;;;;;;5119560;27;20529;-79
2022/06/21 02:35:38;;;;;;;9.90;4.13;;;12.20;99.90;;;;;;5119469;27;20446;-79
2022/06/21 02:38:12;;;;;;;7.70;4.10;;;12.20;99.90;;;;;;5118202;27;20564;-79
2022/06/21 02:40:45;;;;;;;5.50;3.70;;;12.10;99.90;;;;;;5119471;27;20470;-79
2022/06/21 02:43:18;;;;;;;12.20;3.63;;;12.10;99.90;;;;;;5137414;27;20430;-78
2022/06/21 02:45:51;;;;;;;8.37;3.83;;;12.10;99.90;;;;;;5119440;27;20449;-78
2022/06/21 02:48:24;;;;;;;9.27;4.17;;;12.10;99.90;;;;;;5138427;27;20518;-78
2022/06/21 02:50:57;;;;;;;6.37;3.70;;;12.00;99.90;;;;;;5138124;27;20487;-79
2022/06/21 02:53:30;;;;;;;8.20;4.10;;;12.10;99.90;;;;;;5120926;27;20797;-79
2022/06/21 02:56:04;;;;;;;8.70;3.90;;;12.10;99.90;;;;;;5120490;27;20487;-79
2022/06/21 02:58:38;;;;;;;5.83;3.73;;;12.00;99.90;;;;;;5120886;27;20470;-80
2022/06/21 03:01:15;;;;;;;7.03;3.47;;;12.00;99.90;;;;;;5119904;27;20443;-80
2022/06/21 03:03:44;;;;;;;7.83;3.70;;;12.00;99.90;;;;;;5119258;27;20446;-79
2022/06/21 03:06:16;;;;;;;5.60;3.83;;;12.00;99.90;;;;;;5119701;27;21038;-79
2022/06/21 03:08:49;;;;;;;5.20;3.30;;;12.00;99.90;;;;;;5136994;27;20417;-78
2022/06/21 03:11:18;;;;;;;5.77;4.13;;;11.90;99.90;;;;;;5136791;27;20449;-77
2022/06/21 03:13:49;;;;;;;6.97;3.50;;;11.90;99.90;;;;;;5118138;27;20453;-77
2022/06/21 03:16:18;;;;;;;10.63;4.10;;;11.90;99.90;;;;;;5136289;27;20431;-80
2022/06/21 03:18:51;;;;;;;6.07;3.47;;;11.80;99.90;;;;;;5117169;27;20466;-78
2022/06/21 03:21:26;;;;;;;5.97;3.67;;;11.80;99.90;;;;;;5117980;27;20450;-78
2022/06/21 03:23:56;;;;;;;6.67;3.80;;;11.80;99.90;;;;;;5135654;27;20429;-78
2022/06/21 03:26:26;;;;;;;4.60;3.30;;;11.80;99.90;;;;;;5117641;27;20442;-77
2022/06/21 03:28:55;;;;;;;6.80;3.70;;;11.70;99.90;;;;;;5118146;27;20881;-78
2022/06/21 03:31:27;;;;;;;7.60;3.90;;;11.70;99.90;;;;;;5117061;28;20538;-78
2022/06/21 03:34:01;;;;;;;6.60;3.90;;;11.70;99.90;;;;;;5117938;27;20943;-78
2022/06/21 03:36:30;;;;;;;5.33;3.80;;;11.70;99.90;;;;;;5118037;28;20923;-77
2022/06/21 03:39:02;;;;;;;7.03;4.53;;;11.70;99.90;;;;;;5116669;28;20462;-78
2022/06/21 03:41:45;;;;;;;12.67;4.70;;;11.60;99.90;;;;;;5117676;28;20491;-79
2022/06/21 03:44:29;;;;;;;9.27;4.37;;;11.60;99.90;;;;;;5118000;28;20445;-79
2022/06/21 03:47:03;;;;;;;5.97;5.00;;;11.60;99.90;;;;;;5116975;28;20558;-79
2022/06/21 03:49:37;;;;;;;9.63;4.90;;;11.60;99.90;;;;;;5117846;28;20916;-80
2022/06/21 03:52:11;;;;;;;6.70;4.63;;;11.60;99.90;;;;;;5117925;28;20442;-78
2022/06/21 03:54:44;;;;;;;10.20;5.00;;;11.50;99.90;;;;;;5116931;28;20491;-78
2022/06/21 03:57:19;;;;;;;6.80;4.17;;;11.50;99.90;;;;;;5117332;28;20506;-78
2022/06/21 03:59:58;;;;;;;9.53;4.50;;;11.50;99.90;;;;;;5116968;28;20499;-80
2022/06/21 04:02:32;;;;;;;6.73;4.70;;;11.50;99.90;;;;;;5117065;28;20457;-78
2022/06/21 04:05:06;;;;;;;7.03;4.73;;;11.50;99.90;;;;;;5117102;28;20816;-77
2022/06/21 04:07:38;;;;;;;11.87;5.10;;;11.50;99.90;;;;;;5116963;28;21077;-78
2022/06/21 04:10:16;;;;;;;9.57;5.83;;;11.50;99.90;;;;;;5135940;28;20514;-79
2022/06/21 04:12:51;;;;;;;10.17;5.40;;;11.60;99.90;;;;;;5135745;28;20422;-79
2022/06/21 04:15:30;;;;;;;9.93;5.73;;;11.50;99.90;;;;;;5116797;28;20445;-78
2022/06/21 04:18:06;;;;;;;6.57;4.53;;;11.50;99.90;;;;;;5135007;28;20522;-77
2022/06/21 04:20:40;;;;;;;8.97;4.97;;;11.50;99.90;;;;;;5117397;28;20466;-79
2022/06/21 04:23:13;;;;;;;8.10;5.33;;;11.50;99.90;;;;;;5117667;28;20450;-79
2022/06/21 04:25:46;;;;;;;10.37;5.53;;;11.50;99.90;;;;;;5117753;28;20431;-79
2022/06/21 04:28:21;;;;;;;7.10;5.30;;;11.50;99.90;;;;;;5117522;28;20493;-78
2022/06/21 04:30:59;;;;;;;8.60;4.97;;;11.60;99.90;;;;;;5135352;28;20422;-78
2022/06/21 04:33:32;;;;;;;7.77;5.23;;;11.60;99.90;;;;;;5116866;28;20437;-79
2022/06/21 04:36:05;;;;;;;7.87;4.50;;;11.60;99.90;;;;;;5117316;28;20442;-78
2022/06/21 04:38:38;;;;;;;6.07;4.93;;;11.60;99.90;;;;;;5116928;28;21017;-81
2022/06/21 04:41:11;;;;;;;9.83;5.80;;;11.60;99.90;;;;;;5116440;28;20446;-80
2022/06/21 04:43:46;;;;;;;8.93;6.00;;;11.60;99.90;;;;;;5139243;27;20418;-80
2022/06/21 04:46:21;;;;;;;7.50;4.73;;;11.70;99.90;;;;;;5140714;27;20414;-80
2022/06/21 04:48:58;;;;;;;7.00;5.10;;;11.70;99.90;;;;;;5140980;27;20451;-80
2022/06/21 04:51:32;;;;;;;8.00;4.60;;;11.70;99.90;;;;;;5122374;27;20955;-79
2022/06/21 04:54:03;;;;;;;8.23;5.27;;;11.70;99.90;;;;;;5140486;27;20484;-79
2022/06/21 04:56:41;;;;;;;6.57;5.07;;;11.80;99.90;;;;;;5121391;27;20487;-80
2022/06/21 04:59:17;;;;;;;6.80;4.53;;;11.80;99.90;;;;;;5140241;27;20503;-80
2022/06/21 05:01:47;;;;;;;11.10;5.10;;;11.80;99.90;;;;;;5122564;27;20465;-80
2022/06/21 05:04:19;;;;;;;9.53;5.10;;;11.90;99.90;;;;;;5121518;27;20450;-80
2022/06/21 05:06:50;;;;;;;9.63;4.50;;;11.90;99.90;;;;;;5120870;27;20473;-79
2022/06/21 05:09:21;;;;;;;9.67;5.10;;;11.90;99.90;;;;;;5120766;27;20446;-79
2022/06/21 05:11:57;;;;;;;6.63;4.97;;;12.00;99.90;;;;;;5121273;27;20928;-80
2022/06/21 05:14:31;;;;;;;9.83;5.00;;;12.00;99.90;;;;;;5120514;27;20446;-78
2022/06/21 05:17:00;;;;;;;8.77;4.60;;;12.10;99.90;;;;;;5120301;27;20557;-79
2022/06/21 05:19:33;;;;;;;7.87;4.90;;;12.20;99.90;;;;;;5120955;27;20463;-79
2022/06/21 05:22:07;;;;;;;6.20;4.30;;;12.20;99.90;;;;;;5121406;27;20464;-79
2022/06/21 05:24:36;;;;;;;9.90;5.70;;;12.30;99.90;;;;;;5121003;27;20446;-78
2022/06/21 05:27:09;;;;;;;10.33;5.27;;;12.40;99.90;;;;;;5120612;27;20525;-78
2022/06/21 05:29:44;;;;;;;9.30;5.13;;;12.50;99.90;;;;;;5120332;27;20483;-78
2022/06/21 05:32:19;;;;;;;8.63;4.80;;;12.60;99.90;;;;;;5120380;27;20521;-78
2022/06/21 05:34:50;;;;;;;10.30;5.00;;;12.80;99.90;;;;;;5120821;27;20438;-81
2022/06/21 05:37:29;;;;;;;7.13;4.50;;;12.90;99.90;;;;;;5119567;27;20561;-78
2022/06/21 05:40:00;;;;;;;9.43;6.23;;;13.00;99.90;;;;;;5120041;27;20461;-78
2022/06/21 05:42:32;;;;;;;10.43;4.87;;;13.00;99.90;;;;;;5120576;27;20437;-78
2022/06/21 05:45:08;;;;;;;9.27;5.10;;;13.10;99.90;;;;;;5139160;27;20473;-79
2022/06/21 05:47:42;;;;;;;8.53;4.80;;;13.20;99.90;;;;;;5139534;27;20537;-80
2022/06/21 05:50:18;;;;;;;8.80;4.60;;;13.30;99.90;;;;;;5120914;27;20467;-79
2022/06/21 05:52:50;;;;;;;6.07;4.20;;;13.30;99.90;;;;;;5120085;27;20802;-78
2022/06/21 05:55:23;;;;;;;8.30;4.43;;;13.50;99.90;;;;;;5118611;27;20478;-78
2022/06/21 05:57:54;;;;;;;8.77;4.67;;;13.50;99.90;;;;;;5120883;27;20771;-80
2022/06/21 06:00:29;;;;;;;7.87;4.30;;;13.60;99.90;;;;;;5118893;27;20431;-78
2022/06/21 06:03:06;;;;;;;10.27;5.20;;;13.70;99.90;;;;;;5137860;27;20457;-79
2022/06/21 06:05:36;;;;;;;9.90;4.50;;;13.90;99.90;;;;;;5119790;27;20434;-81
2022/06/21 06:08:10;;;;;;;9.23;5.03;;;14.00;99.90;;;;;;5137861;27;20466;-80
2022/06/21 06:10:42;;;;;;;7.37;4.67;;;14.20;99.90;;;;;;5119497;27;20487;-81
2022/06/21 06:13:15;;;;;;;9.43;4.70;;;14.30;99.90;;;;;;5118938;27;20537;-80
2022/06/21 06:15:47;;;;;;;7.63;4.53;;;14.50;99.90;;;;;;5119102;27;20449;-79
2022/06/21 06:18:22;;;;;;;8.67;3.67;;;14.80;99.90;;;;;;5118813;27;21009;-80
2022/06/21 06:20:57;;;;;;;7.93;3.33;;;15.20;99.90;;;;;;5119571;27;20471;-78
2022/06/21 06:23:33;;;;;;;7.33;3.80;;;15.40;99.90;;;;;;5119013;27;20473;-79
2022/06/21 06:26:05;;;;;;;11.43;3.27;;;15.70;99.90;;;;;;5137806;27;20444;-79
2022/06/21 06:28:41;;;;;;;5.87;3.10;;;15.90;99.90;;;;;;5138282;27;20467;-80
2022/06/21 06:31:16;;;;;;;7.30;2.67;;;16.30;99.90;;;;;;5118225;27;20417;-81
2022/06/21 06:33:52;;;;;;;7.07;2.77;;;16.60;99.90;;;;;;5119294;27;20425;-78
2022/06/21 06:36:25;;;;;;;4.70;2.57;;;16.80;99.90;;;;;;5118681;27;20466;-79
2022/06/21 06:38:54;;;;;;;7.80;3.70;;;16.90;99.90;;;;;;5119400;27;20458;-79
2022/06/21 06:41:27;;;;;;;6.20;2.63;;;17.10;99.90;;;;;;5138501;27;20484;-80
2022/06/21 06:43:58;;;;;;;4.90;2.67;;;17.30;99.90;;;;;;5118262;27;20424;-78
2022/06/21 06:46:30;;;;;;;5.67;2.63;;;17.40;99.90;;;;;;5118349;27;20827;-78
2022/06/21 06:49:17;;;;;;;5.60;2.83;;;17.50;99.90;;;;;;5138094;27;20446;-79
2022/06/21 06:51:52;;;;;;;9.90;3.03;;;17.60;99.90;;;;;;5119124;27;20412;-78
2022/06/21 06:54:29;;;;;;;5.33;2.40;;;17.70;99.90;;;;;;5118641;27;20413;-80
2022/06/21 06:57:08;;;;;;;5.57;2.20;;;18.00;99.90;;;;;;5118415;27;20494;-79
2022/06/21 06:59:37;;;;;;;3.47;1.97;;;18.10;99.90;;;;;;5118225;27;20519;-78
2022/06/21 07:02:13;;;;;;;6.63;3.17;;;18.10;99.90;;;;;;5137011;27;20452;-81
2022/06/21 07:04:48;;;;;;;7.30;3.00;;;18.00;99.90;;;;;;5117798;27;20836;-78
2022/06/21 07:07:29;;;;;;;5.17;2.70;;;17.90;99.90;;;;;;5118178;27;20815;-77
2022/06/21 07:10:04;;;;;;;4.80;2.33;;;17.80;99.90;;;;;;5117803;28;20488;-80
2022/06/21 07:12:33;;;;;;;6.00;2.10;;;17.70;99.90;;;;;;5117669;27;20409;-81
2022/06/21 07:15:03;;;;;;;5.13;2.40;;;17.70;99.90;;;;;;5118010;27;20474;-78
2022/06/21 07:17:37;;;;;;;5.23;2.43;;;17.60;99.90;;;;;;5117803;27;20441;-78
2022/06/21 07:20:21;;;;;;;7.53;2.43;;;17.60;99.90;;;;;;5118710;27;20792;-78
2022/06/21 07:22:51;;;;;;;4.50;2.40;;;17.90;99.90;;;;;;5117932;27;20496;-78
2022/06/21 07:25:27;;;;;;;6.33;2.60;;;18.10;99.90;;;;;;5118041;27;20417;-79
2022/06/21 07:28:08;;;;;;;3.63;2.30;;;18.40;99.90;;;;;;5118437;28;20468;-79
2022/06/21 07:30:40;;;;;;;6.87;2.30;;;18.50;99.80;;;;;;5118704;28;20442;-79
2022/06/21 07:33:13;;;;;;;7.47;2.23;;;18.50;99.70;;;;;;5137294;27;20886;-79
2022/06/21 07:35:48;;;;;;;6.10;2.67;;;18.50;99.40;;;;;;5117950;28;20546;-79
2022/06/21 07:38:22;;;;;;;3.80;2.20;;;18.50;99.20;;;;;;5117923;28;20476;-81
2022/06/21 07:40:54;;;;;;;6.37;2.40;;;18.60;99.40;;;;;;5118029;27;20458;-80
2022/06/21 07:43:26;;;;;;;6.00;2.33;;;18.90;99.40;;;;;;5117852;28;20438;-78
2022/06/21 07:45:58;;;;;;;6.07;2.30;;;19.10;99.10;;;;;;5136304;28;20426;-80
2022/06/21 07:48:36;;;;;;;5.67;3.23;;;19.10;98.80;;;;;;5136930;28;20465;-79
2022/06/21 07:51:08;;;;;;;5.87;3.10;;;18.90;98.50;;;;;;5117525;28;20469;-79
2022/06/21 07:53:48;;;;;;;5.30;2.17;;;18.80;98.20;;;;;;5118227;28;20982;-79
2022/06/21 07:56:20;;;;;;;3.83;2.30;;;18.80;98.20;;;;;;5117886;28;20790;-81
2022/06/21 07:58:53;;;;;;;5.83;3.77;;;18.70;98.20;;;;;;5137172;28;20557;-78
2022/06/21 08:07:08;;;;;;;3.83;2.50;;;19.30;97.90;;;;;;5094911;28;20991;-79
2022/06/21 08:09:43;;;;;;;5.30;2.80;;;19.20;97.70;;;;;;5120334;28;20455;-81
2022/06/21 08:12:13;;;;;;;8.00;2.30;;;19.20;97.50;;;;;;5118959;28;20470;-81
2022/06/21 08:14:41;;;;;;;6.10;2.80;;;19.10;97.30;;;;;;5137949;28;20973;-80
2022/06/21 08:17:18;;;;;;;6.10;2.60;;;19.10;97.20;;;;;;5137714;27;20882;-80
2022/06/21 08:19:51;;;;;;;8.17;3.23;;;19.20;97.10;;;;;;5122355;27;20500;-80
2022/06/21 08:22:24;;;;;;;4.90;2.90;;;19.40;97.20;;;;;;5141994;27;20450;-81
2022/06/21 08:24:57;;;;;;;8.73;3.20;;;19.60;97.20;;;;;;5121588;27;20462;-81
2022/06/21 08:27:36;;;;;;;4.67;2.80;;;19.90;96.80;;;;;;5122167;27;20466;-78
2022/06/21 08:30:12;;;;;;;5.03;3.00;;;20.00;96.50;;;;;;5121667;27;20522;-80
2022/06/21 08:32:48;;;;;;;8.93;3.13;;;20.00;96.40;;;;;;5122311;27;20438;-80
2022/06/21 08:35:21;;;;;;;6.47;2.23;;;19.90;96.40;;;;;;5122320;27;20473;-80
2022/06/21 08:37:57;;;;;;;4.50;2.97;;;19.80;96.20;;;;;;5122219;27;20523;-79
2022/06/21 08:41:05;;;;;;;3.93;2.40;;;19.80;96.40;;;;;;5122413;27;20458;-79
2022/06/21 08:44:10;;;;;;;5.67;2.63;;;19.80;96.20;;;;;;5081684;27;21042;-79
2022/06/21 08:47:14;;;;;;;4.63;2.60;;;20.00;95.80;;;;;;5126913;27;20449;-78
2022/06/21 08:50:18;;;;;;;6.80;2.70;;;20.10;95.90;;;;;;5122044;27;20461;-80
2022/06/21 08:53:03;;;;;;;5.77;2.53;;;20.30;96.10;;;;;;5102246;27;20916;-80
2022/06/21 08:55:38;;;;;;;5.50;2.53;;;20.40;96.10;;;;;;5140203;27;20430;-79
2022/06/21 08:58:22;;;;;;;5.50;2.73;;;20.60;96.00;;;;;;5140648;27;20453;-77
2022/06/21 09:00:56;;;;;;;4.43;2.40;;;20.70;95.70;;;;;;5120561;27;20830;-78
2022/06/21 09:03:40;;;;;;;7.90;3.13;;;20.70;95.60;;;;;;5121448;27;20443;-80
2022/06/21 09:06:26;;;;;;;4.53;2.57;;;20.70;95.40;;;;;;5122804;27;20439;-79
2022/06/21 09:09:29;;;;;;;7.33;2.50;;;20.70;95.30;;;;;;5123403;27;20480;-80
2022/06/21 09:12:07;;;;;;;4.90;2.70;;;20.80;95.30;;;;;;5122888;27;20466;-78
2022/06/21 09:14:59;;;;;;;6.37;2.70;;;20.90;95.20;;;;;;5123302;27;20939;-79
2022/06/21 09:17:37;;;;;;;4.07;2.30;;;21.10;95.10;;;;;;5142962;27;20501;-79
2022/06/21 09:20:20;;;;;;;5.37;2.77;;;21.20;94.90;;;;;;5123630;27;20469;-78
2022/06/21 09:23:21;;;;;;;7.10;2.80;;;21.30;94.70;;;;;;5122864;27;20438;-78
2022/06/21 09:26:02;;;;;;;5.47;2.70;;;21.40;94.60;;;;;;5123760;27;20483;-78
2022/06/21 09:28:38;;;;;;;3.30;2.20;;;21.50;94.40;;;;;;5141264;27;20450;-79
2022/06/21 09:31:14;;;;;;;4.93;2.83;;;21.50;94.20;;;;;;5122347;27;20980;-80
2022/06/21 09:33:49;;;;;;;4.80;2.70;;;21.60;94.30;;;;;;5142269;27;20425;-79
2022/06/21 09:36:27;;;;;;;8.00;2.63;;;21.70;94.30;;;;;;5140017;27;20437;-77
2022/06/21 09:39:10;;;;;;;5.00;2.37;;;21.80;94.10;;;;;;5138238;27;20418;-77
2022/06/21 09:41:48;;;;;;;5.07;3.10;;;21.80;93.70;;;;;;5124801;27;20466;-79
2022/06/21 09:44:25;;;;;;;6.80;2.80;;;21.80;93.60;;;;;;5124287;27;20485;-80
2022/06/21 09:47:02;;;;;;;5.40;2.50;;;21.70;93.30;;;;;;5149031;27;20458;-80
2022/06/21 09:49:41;;;;;;;13.47;8.70;;;21.70;93.00;;;;;;5153386;27;20415;-80
2022/06/21 09:52:20;;;;;;;5.90;2.93;;;21.60;93.10;;;;;;5133595;27;20454;-81
2022/06/21 09:54:59;;;;;;;9.50;2.90;;;21.60;93.10;;;;;;5149724;27;20435;-80
2022/06/21 09:57:44;;;;;;;5.10;3.00;;;21.70;93.20;;;;;;5130922;27;20485;-80
2022/06/21 10:00:18;;;;;;;6.73;2.83;;;21.70;92.90;;;;;;5145473;27;20426;-81
2022/06/21 10:02:59;;;;;;;3.43;2.33;;;21.80;92.80;;;;;;5143102;27;20448;-80
2022/06/21 10:05:33;;;;;;;6.20;2.33;;;21.80;92.60;;;;;;5125054;27;20459;-79
2022/06/21 10:08:18;;;;;;;6.67;2.70;;;21.90;92.60;;;;;;5124829;27;20477;-80
2022/06/21 10:11:00;;;;;;;3.10;2.17;;;22.00;92.50;;;;;;5123442;27;20468;-79
2022/06/21 10:14:02;;;;;;;5.13;2.50;;;22.00;92.50;;;;;;5143203;27;20419;-80
2022/06/21 10:16:47;;;;;;;3.83;2.87;;;22.10;92.00;;;;;;5142572;27;20470;-81
2022/06/21 10:19:26;;;;;;;5.47;2.50;;;22.10;92.00;;;;;;5124892;27;20460;-79
2022/06/21 10:22:12;;;;;;;6.57;2.73;;;22.10;92.00;;;;;;5143153;27;20480;-79
2022/06/21 10:25:11;;;;;;;5.40;2.67;;;22.30;92.10;;;;;;5143351;27;20423;-81
2022/06/21 10:28:09;;;;;;;4.13;3.40;;;22.40;92.30;;;;;;5142374;27;20478;-81
2022/06/21 10:31:00;;;;;;;3.87;2.77;;;22.50;92.20;;;;;;5114971;27;20481;-80
2022/06/21 10:34:02;;;;;;;3.77;2.77;;;22.60;91.80;;;;;;5123138;27;20438;-80
2022/06/21 10:36:55;;;;;;;4.27;2.87;;;22.70;91.60;;;;;;5125218;27;20453;-78
2022/06/21 10:39:53;;;;;;;5.13;3.43;;;22.70;91.60;;;;;;5125772;27;20439;-79
2022/06/21 10:42:50;;;;;;;7.80;3.20;;;22.70;91.30;;;;;;5145621;27;20490;-83
2022/06/21 10:45:36;;;;;;;4.90;2.83;;;22.70;91.40;;;;;;5127247;27;20450;-81
2022/06/21 10:48:43;;;;;;;5.37;3.00;;;22.70;91.40;;;;;;5144951;27;20993;-79
2022/06/21 10:51:20;;;;;;;4.67;2.50;;;22.80;91.00;;;;;;5103595;27;20521;-81
2022/06/21 10:54:13;;;;;;;6.73;3.17;;;22.90;91.00;;;;;;5125549;27;20962;-79
2022/06/21 10:57:11;;;;;;;4.80;2.80;;;23.00;90.60;;;;;;5126208;27;20531;-81
2022/06/21 11:03:27;;;;;;;5.03;3.00;;;23.10;90.70;;;;;;5141805;27;20484;-82
2022/06/21 11:06:06;;;;;;;6.40;2.90;;;23.10;90.20;;;;;;5118960;27;20534;-81
2022/06/21 11:08:42;;;;;;;5.80;2.27;;;23.10;90.10;;;;;;5119283;27;20462;-80
2022/06/21 11:11:17;;;;;;;6.60;3.03;;;23.10;90.20;;;;;;5120250;27;20466;-82
2022/06/21 11:13:50;;;;;;;4.47;2.87;;;23.10;90.10;;;;;;5119161;27;20538;-82
2022/06/21 11:16:26;;;;;;;4.40;2.40;;;23.10;89.90;;;;;;5119190;27;20533;-83
2022/06/21 11:19:03;;;;;;;4.07;2.80;;;23.10;89.90;;;;;;5119466;27;20442;-82
2022/06/21 11:21:48;;;;;;;3.93;2.57;;;23.20;89.70;;;;;;5119442;27;20549;-81
2022/06/21 11:24:35;;;;;;;5.93;3.53;;;23.20;89.60;;;;;;5120497;27;20920;-81
2022/06/21 11:27:13;;;;;;;6.03;2.83;;;23.30;88.80;;;;;;5138585;27;20481;-81
2022/06/21 11:29:47;;;;;;;5.47;2.67;;;23.30;88.50;;;;;;5121285;28;20856;-81
2022/06/21 11:32:25;;;;;;;3.13;2.70;;;23.30;88.40;;;;;;5119579;27;20443;-83
2022/06/21 11:35:03;;;;;;;5.60;2.87;;;23.30;88.30;;;;;;5120706;27;20438;-82
2022/06/21 11:37:43;;;;;;;4.13;2.80;;;23.40;88.00;;;;;;5118447;27;20462;-82
2022/06/21 11:40:31;;;;;;;10.00;2.50;;;23.40;87.80;;;;;;5119739;27;20466;-82
2022/06/21 11:43:03;;;;;;;4.20;2.33;;;23.40;87.70;;;;;;5140172;27;20458;-80
2022/06/21 11:45:44;;;;;;;6.40;3.50;;;23.50;87.90;;;;;;5139851;27;20411;-80
2022/06/21 11:48:54;;;;;;;4.50;2.50;;;23.60;87.70;;;;;;5119837;28;20505;-82
2022/06/21 11:51:36;;;;;;;4.23;2.50;;;23.60;87.40;;;;;;5113119;27;20434;-82
2022/06/21 11:54:11;;;;;;;5.03;2.50;;;23.70;87.30;;;;;;5142781;27;20426;-82
2022/06/21 11:56:48;;;;;;;5.17;2.33;;;23.70;86.80;;;;;;5142209;27;20452;-82
2022/06/21 11:59:24;;;;;;;4.70;2.40;;;23.70;86.80;;;;;;5143259;27;20431;-81
2022/06/21 12:02:00;;;;;;;3.80;2.20;;;23.70;87.10;;;;;;5124579;27;20556;-81
2022/06/21 12:04:39;;;;;;;3.80;2.30;;;23.80;86.50;;;;;;5125141;27;20955;-81
2022/06/21 12:07:13;;;;;;;3.80;1.90;;;23.80;86.30;;;;;;5124561;27;20458;-80
2022/06/21 12:09:51;;;;;;;4.13;2.40;;;23.80;85.40;;;;;;5142747;27;20430;-80
2022/06/21 12:12:45;;;;;;;3.30;2.17;;;23.80;84.90;;;;;;5123722;27;20438;-82
2022/06/21 12:15:34;;;;;;;7.90;2.93;;;23.80;84.00;;;;;;5121066;27;20446;-82
2022/06/21 12:18:07;;;;;;;4.10;2.50;;;23.80;84.00;;;;;;5124993;27;20511;-82
2022/06/21 12:20:42;;;;;;;5.50;2.67;;;23.80;84.00;;;;;;5124707;27;20439;-80
2022/06/21 12:23:19;;;;;;;5.20;3.93;;;23.80;83.60;;;;;;5125047;27;20896;-82
2022/06/21 12:25:49;;;;;;;5.23;2.60;;;23.80;84.00;;;;;;5143240;27;20444;-80
2022/06/21 12:28:21;;;;;;;3.20;2.30;;;23.90;84.10;;;;;;5124851;27;20462;-81
2022/06/21 12:31:01;;;;;;;5.40;2.80;;;23.90;83.70;;;;;;5123813;27;20483;-81
2022/06/21 12:33:33;;;;;;;5.50;2.87;;;23.90;83.50;;;;;;5124306;27;20454;-81
2022/06/21 12:36:27;;;;;;;3.20;2.40;;;23.90;83.30;;;;;;5125519;27;20473;-81
2022/06/21 12:39:00;;;;;;;9.00;3.03;;;23.90;83.40;;;;;;5123752;27;20471;-81
2022/06/21 12:41:47;;;;;;;3.20;2.10;;;23.90;83.00;;;;;;5124214;27;20546;-81
2022/06/21 12:44:32;;;;;;;4.57;2.70;;;23.90;82.50;;;;;;5123722;27;20430;-82
2022/06/21 12:47:08;;;;;;;4.00;2.37;;;23.90;82.40;;;;;;5122307;27;20515;-79
2022/06/21 12:50:08;;;;;;;3.53;2.20;;;23.90;82.50;;;;;;5123660;27;20442;-82
2022/06/21 12:52:43;;;;;;;4.23;2.53;;;24.00;82.00;;;;;;5123787;27;20970;-80
2022/06/21 12:55:18;;;;;;;4.53;2.40;;;24.00;82.10;;;;;;5142955;27;20451;-80
2022/06/21 12:58:09;;;;;;;10.93;2.87;;;24.00;81.60;;;;;;5142689;27;20480;-80
2022/06/21 13:00:47;;;;;;;6.37;2.60;;;24.10;81.80;;;;;;5124906;27;20439;-80
2022/06/21 13:03:38;;;;;;;4.87;2.37;;;24.10;81.90;;;;;;5127513;27;20504;-82
2022/06/21 13:06:34;;;;;;;4.13;2.50;;;24.20;81.20;;;;;;5127621;27;20495;-81
2022/06/21 13:09:44;;;;;;;3.10;2.07;;;24.30;81.40;;;;;;5124804;27;20469;-77
2022/06/21 13:12:24;;;;;;;3.47;2.60;;;24.30;80.90;;;;;;5122387;27;20499;-77
2022/06/21 13:15:21;;;;;;;2.87;1.90;;;24.30;80.90;;;;;;5138275;27;20425;-77
2022/06/21 13:18:18;;;;;;;5.40;2.90;;;24.30;81.10;;;;;;5140308;27;20505;-78
2022/06/21 13:20:58;;;;;;;5.37;2.70;;;24.30;80.50;;;;;;5123217;27;20447;-78
2022/06/21 13:23:32;;;;;;;4.43;2.70;;;24.30;80.60;;;;;;5121823;27;20455;-76
2022/06/21 13:26:11;;;;;;;4.97;2.53;;;24.30;80.90;;;;;;5118976;27;20526;-76
2022/06/21 13:28:57;;;;;;;4.70;2.70;;;24.30;81.20;;;;;;5136835;27;20454;-76
2022/06/21 13:31:33;;;;;;;3.33;2.37;;;24.30;81.00;;;;;;5118428;27;20499;-76
2022/06/21 13:34:06;;;;;;;5.10;2.40;;;24.20;81.10;;;;;;5118624;27;20495;-76
2022/06/21 13:36:40;;;;;;;5.13;2.60;;;24.20;81.00;;;;;;5118301;27;20434;-77
2022/06/21 13:39:35;;;;;;;7.17;2.87;;;24.20;80.80;;;;;;5136826;27;20423;-76
2022/06/21 13:45:04;;;;;;;3.40;2.10;;;24.30;81.20;;;;;;5136661;27;20438;-76
2022/06/21 13:47:42;;;;;;;4.60;2.67;;;24.30;81.30;;;;;;5136523;27;20977;-76